Terminal Aerodrome Forecast
Issued by NWS

Current Version | Previous Version | Text Only | Print | Product List | Glossary On
Versions: 1 2 3 4 5 6 7 8 9 10 11 12 13 14
000
FTUS46 KLOX 010348 AAA
TAFOXR
TAF AMD
KOXR 010348Z 0104/0124 28008KT P6SM SCT150 BKN250
     FM010800 VRB03KT 4SM BR OVC007
     FM011600 VRB03KT 5SM BR OVC010
     FM011800 25006KT P6SM SCT015 BKN250
     FM012100 25008KT P6SM OVC250=

USA.gov is the U.S. government's official web portal to all federal, state and local government web resources and services.